Ouray, CO

6:20 AM MDT on May 22, 2015 (GMT -0600)
Ouray | | Change Station
CLOSE
Current Station
Personal Weather Station
Location: Ouray, CO
Elevation: 7736 ft
Nearby Weather Stations

Elev 7736 ft 38.03 °N, 107.67 °W | Updated 1 second ago

Partly Cloudy
Partly Cloudy
38.6 °F
Feels Like 39 °F
N
0.0
Wind Variable Wind from SSE
Gusts 3.0 mph

Today
High -- | Low -- °F
--% Chance of Precip.
Yesterday
High -- | Low -- °F
Precip. -- in
5:55 AM 8:20 PM
Waxing Crescent, 21% visible
Pressure 30.14 in
Visibility 10.0 miles
Clouds Clear
Windchill 39 °F
Dew Point 34 °F
Humidity 85%
Rainfall 0.05 in
Snow Depth Not available.
UV 0 out of 12
Pollen 8.30 out of 12
Air Quality Not available.
Flu Activity Sporadic
METAR KTEX 221215Z AUTO 00000KT 10SM CLR 03/M01 A3014 RMK AO2 T00301009

More Conditions Fewer Conditions

Pressure 30.14 in
Visibility 10.0 miles
Clouds Clear
Windchill 39 °F
Dew Point 34 °F
Humidity 85%
Rainfall 0.05 in
Snow Depth Not available.
UV 0 out of 12
Pollen 8.30 out of 12
Air Quality Not available.
Flu Activity Sporadic
METAR KTEX 221215Z AUTO 00000KT 10SM CLR 03/M01 A3014 RMK AO2 T00301009

More Conditions Fewer Conditions

10-Day Weather Forecast

Almanac

Astronomy

May. 22, 2015 Rise Set
Actual Time
Civil Twilight
Nautical Twilight
Astronomical Twilight
Moon
Length of Visible Light
Length of Day
Tomorrow will be .
, % of the Moon is Illuminated

Today's Extremes

State Highs State Lows

Community

WunderPhotos

Upload Photos

1,823,208 photos uploaded!

WunderBlogs® & News

Nearby

Air Quality

  Air Quality AQ Index Pollutant
Not available.

Snow Depth

Station Depth Elevation

Earthquake Activity

City Distance Mag. Time & Date
Minimum magnitude displayed is 2.5.

Coastal Water Temperatures

Place Temperature

Stations

Nearby Weather Stations

Station Location Temp. Windchill Dew Point Humidity Wind Precip. Elev Updated Type